createdAt,value
2018-05-07T00:00:20.822Z,17.63
2018-05-07T00:02:48.984Z,17.60
2018-05-07T00:05:17.195Z,17.54
2018-05-07T00:07:45.368Z,17.50
2018-05-07T00:10:13.557Z,17.44
2018-05-07T00:12:41.728Z,17.38
2018-05-07T00:15:09.882Z,17.29
2018-05-07T00:17:38.082Z,17.22
2018-05-07T00:20:06.262Z,17.19
2018-05-07T00:22:34.451Z,17.18
2018-05-07T00:25:02.598Z,17.12
2018-05-07T00:27:30.769Z,17.10
2018-05-07T00:29:58.927Z,17.05
2018-05-07T00:32:27.118Z,17.05
2018-05-07T00:34:55.307Z,17.03
2018-05-07T00:37:23.495Z,17.03
2018-05-07T00:39:51.709Z,17.08
2018-05-07T00:42:19.977Z,17.10
2018-05-07T00:44:48.193Z,17.13
2018-05-07T00:47:16.361Z,17.19
2018-05-07T00:49:44.587Z,17.20
2018-05-07T00:52:12.741Z,17.21
2018-05-07T01:42:52.824Z,16.40
2018-05-07T01:45:20.978Z,16.39
2018-05-07T01:47:49.180Z,16.40
2018-05-07T01:50:17.363Z,16.38
2018-05-07T01:52:45.552Z,16.36
2018-05-07T01:55:13.714Z,16.37
2018-05-07T01:57:41.891Z,16.38
2018-05-07T02:00:10.104Z,16.36
2018-05-07T02:02:38.272Z,16.34
2018-05-07T02:05:06.465Z,16.36
2018-05-07T02:07:34.639Z,16.34
2018-05-07T02:10:02.819Z,16.34
2018-05-07T02:12:31.442Z,16.30
2018-05-07T02:14:59.659Z,16.29
2018-05-07T02:17:27.846Z,16.30
2018-05-07T02:19:56.010Z,16.27
2018-05-07T02:22:24.164Z,16.24
2018-05-07T02:24:52.372Z,16.22
2018-05-07T02:27:20.539Z,16.19
2018-05-07T02:29:48.712Z,16.13
2018-05-07T02:32:16.886Z,16.18
2018-05-07T02:34:45.100Z,16.23
2018-05-07T02:37:13.275Z,16.22
2018-05-07T02:39:41.490Z,16.20
2018-05-07T02:42:09.688Z,16.17
2018-05-07T02:44:37.873Z,16.15
2018-05-07T02:47:06.027Z,16.15
2018-05-07T02:49:34.249Z,16.17
2018-05-07T02:52:02.393Z,16.14
2018-05-07T02:54:30.579Z,16.01
2018-05-07T02:56:58.725Z,15.99
2018-05-07T02:59:26.898Z,15.93
2018-05-07T03:01:55.067Z,15.88
2018-05-07T03:04:23.259Z,15.80
2018-05-07T03:06:51.438Z,15.73
2018-05-07T03:09:19.579Z,15.66
2018-05-07T03:11:47.746Z,15.65
2018-05-07T03:14:15.922Z,15.57
2018-05-07T03:16:44.126Z,15.55
2018-05-07T03:19:12.268Z,15.50
2018-05-07T03:21:40.441Z,15.43
2018-05-07T03:24:08.618Z,15.37
2018-05-07T03:26:36.820Z,15.27
2018-05-07T03:29:04.975Z,15.22
2018-05-07T03:31:33.201Z,15.15
2018-05-07T03:34:01.349Z,15.09
2018-05-07T03:36:29.542Z,15.04
2018-05-07T03:38:57.725Z,15.00
2018-05-07T03:41:25.899Z,14.94
2018-05-07T03:43:54.099Z,14.89
2018-05-07T03:46:22.252Z,14.85
2018-05-07T03:48:50.402Z,14.91
2018-05-07T03:51:18.565Z,14.90
2018-05-07T03:53:46.741Z,14.85
2018-05-07T03:56:14.953Z,14.75
2018-05-07T03:58:43.136Z,14.70
2018-05-07T04:01:11.317Z,14.68
2018-05-07T04:03:39.547Z,14.65
2018-05-07T04:06:07.706Z,14.63
2018-05-07T04:08:35.886Z,14.69
2018-05-07T04:11:04.087Z,14.70
2018-05-07T04:13:32.322Z,14.63
2018-05-07T04:16:00.452Z,14.65
2018-05-07T04:19:24.464Z,14.64
2018-05-07T04:22:31.484Z,14.65
2018-05-07T04:24:59.660Z,14.57
2018-05-07T04:27:27.842Z,14.56
2018-05-07T04:29:56.015Z,14.56
2018-05-07T04:32:24.187Z,14.54
2018-05-07T04:34:52.395Z,14.56
2018-05-07T04:37:20.583Z,14.54
2018-05-07T04:39:48.763Z,14.53
2018-05-07T04:42:16.969Z,14.54
2018-05-07T04:44:45.154Z,14.50
2018-05-07T04:47:13.328Z,14.52
2018-05-07T04:49:41.481Z,14.51
2018-05-07T04:52:09.653Z,14.48
2018-05-07T04:54:38.369Z,14.54
2018-05-07T04:57:06.511Z,14.60
2018-05-07T04:59:34.700Z,14.70
2018-05-07T05:02:02.877Z,14.74
2018-05-07T05:04:31.053Z,14.82
2018-05-07T05:06:59.202Z,14.87
2018-05-07T05:09:27.416Z,14.91
2018-05-07T05:11:55.574Z,14.94
2018-05-07T05:14:23.747Z,14.98
2018-05-07T05:16:51.948Z,15.03
2018-05-07T05:19:20.243Z,15.10
2018-05-07T05:21:48.334Z,15.14
2018-05-07T05:24:16.516Z,15.24
2018-05-07T05:26:44.704Z,15.32
2018-05-07T05:29:12.907Z,15.39
2018-05-07T05:31:41.094Z,15.47
2018-05-07T05:34:09.236Z,15.59
2018-05-07T05:36:37.442Z,15.68
2018-05-07T05:39:06.100Z,15.77
2018-05-07T05:41:34.285Z,15.88
2018-05-07T05:44:02.455Z,16.03
2018-05-07T05:46:30.647Z,16.22
2018-05-07T05:48:58.868Z,16.34
2018-05-07T05:51:27.052Z,16.50
2018-05-07T05:53:55.220Z,16.74
2018-05-07T05:56:23.624Z,16.98
2018-05-07T05:58:51.764Z,17.19
2018-05-07T06:01:19.946Z,17.43
2018-05-07T06:03:48.165Z,17.68
2018-05-07T06:06:16.283Z,18.31
2018-05-07T06:08:44.484Z,18.62
2018-05-07T06:11:12.642Z,18.69
2018-05-07T06:13:40.790Z,18.77
2018-05-07T06:16:08.973Z,18.95
2018-05-07T06:18:37.136Z,19.67
2018-05-07T06:21:05.335Z,20.52
2018-05-07T06:23:33.512Z,20.70
2018-05-07T06:26:01.744Z,21.07
2018-05-07T06:28:29.906Z,23.18
2018-05-07T06:30:58.094Z,25.58
2018-05-07T06:33:26.516Z,27.31
2018-05-07T06:35:54.689Z,28.63
2018-05-07T06:38:22.848Z,29.19
2018-05-07T06:40:51.040Z,30.23
2018-05-07T06:43:19.227Z,31.42
2018-05-07T06:45:47.402Z,32.19
2018-05-07T06:48:15.557Z,32.78
2018-05-07T06:50:43.769Z,33.01
2018-05-07T06:53:11.967Z,32.87
2018-05-07T06:55:40.137Z,33.49
2018-05-07T06:58:08.610Z,33.89
2018-05-07T07:00:37.718Z,33.18
2018-05-07T07:03:06.915Z,34.17
2018-05-07T07:05:36.787Z,34.63
2018-05-07T07:08:06.928Z,34.77
2018-05-07T07:10:35.438Z,35.42
2018-05-07T07:13:04.811Z,35.94
2018-05-07T07:15:34.407Z,36.35
2018-05-07T07:18:03.155Z,36.48
2018-05-07T07:20:33.493Z,36.70
2018-05-07T07:23:02.302Z,36.86
2018-05-07T07:25:32.305Z,36.86
2018-05-07T07:28:03.150Z,36.96
2018-05-07T07:30:31.210Z,37.40
2018-05-07T07:32:59.412Z,37.50
2018-05-07T07:35:27.628Z,37.74
2018-05-07T07:37:55.841Z,38.00
2018-05-07T07:40:24.003Z,37.59
2018-05-07T07:42:52.210Z,37.30
2018-05-07T07:45:20.382Z,37.46
2018-05-07T07:47:50.272Z,37.51
2018-05-07T07:50:18.452Z,37.54
2018-05-07T07:52:46.641Z,37.35
2018-05-07T07:55:14.813Z,37.64
2018-05-07T07:57:43.001Z,37.48
2018-05-07T08:00:11.187Z,37.49
2018-05-07T08:02:39.380Z,37.28
2018-05-07T08:05:07.560Z,37.28
2018-05-07T08:07:35.759Z,37.62
2018-05-07T08:10:03.942Z,37.45
2018-05-07T08:12:32.117Z,37.14
2018-05-07T08:15:00.287Z,37.24
2018-05-07T08:17:28.536Z,37.76
2018-05-07T08:19:56.643Z,38.15
2018-05-07T08:22:24.799Z,37.68
2018-05-07T08:24:52.966Z,37.39
2018-05-07T08:27:21.115Z,37.66
2018-05-07T08:29:49.310Z,37.83
2018-05-07T08:32:17.494Z,37.78
2018-05-07T08:34:45.664Z,37.94
2018-05-07T08:37:13.843Z,38.56
2018-05-07T08:39:41.993Z,38.72
2018-05-07T08:42:10.171Z,38.20
2018-05-07T08:44:38.327Z,38.39
2018-05-07T08:47:06.531Z,38.63
2018-05-07T08:49:34.682Z,38.74
2018-05-07T08:52:02.887Z,38.72
2018-05-07T08:54:31.127Z,39.32
2018-05-07T08:56:59.361Z,39.43
2018-05-07T08:59:27.548Z,39.84
2018-05-07T09:01:55.839Z,39.84
2018-05-07T09:04:24.009Z,39.78
2018-05-07T09:06:52.178Z,39.72
2018-05-07T09:09:20.385Z,39.97
2018-05-07T09:11:48.569Z,40.14
2018-05-07T09:14:16.755Z,40.30
2018-05-07T09:16:44.959Z,40.54
2018-05-07T09:19:13.148Z,40.10
2018-05-07T09:21:41.326Z,40.31
2018-05-07T09:24:09.511Z,40.12
2018-05-07T09:26:37.698Z,40.19
2018-05-07T09:31:48.690Z,39.48
2018-05-07T09:34:16.862Z,39.78
2018-05-07T09:36:45.192Z,40.07
2018-05-07T09:39:13.395Z,39.82
2018-05-07T09:41:41.640Z,39.93
2018-05-07T09:44:09.852Z,40.22
2018-05-07T09:46:38.056Z,40.13
2018-05-07T09:49:06.334Z,39.82
2018-05-07T09:51:34.464Z,39.77
2018-05-07T09:54:02.704Z,39.97
2018-05-07T09:56:32.598Z,39.72
2018-05-07T09:59:00.717Z,39.27
2018-05-07T10:01:28.966Z,39.26
2018-05-07T10:03:57.153Z,38.81
2018-05-07T10:06:25.356Z,38.65
2018-05-07T10:08:53.530Z,38.69
2018-05-07T10:11:21.751Z,38.51
2018-05-07T10:13:50.019Z,38.58
2018-05-07T10:16:18.196Z,38.87
2018-05-07T10:18:46.399Z,39.03
2018-05-07T10:21:14.625Z,39.03
2018-05-07T10:23:42.811Z,39.27
2018-05-07T10:26:11.007Z,39.64
2018-05-07T10:28:39.215Z,39.56
2018-05-07T10:31:07.368Z,39.62
2018-05-07T10:33:35.574Z,39.48
2018-05-07T10:36:03.748Z,39.63
2018-05-07T10:38:31.910Z,39.32
2018-05-07T10:41:00.163Z,38.88
2018-05-07T10:43:28.340Z,38.32
2018-05-07T10:45:56.538Z,38.47
2018-05-07T10:48:24.709Z,38.50
2018-05-07T10:50:52.997Z,38.23
2018-05-07T10:53:21.204Z,38.04
2018-05-07T10:55:49.372Z,38.55
2018-05-07T10:58:17.561Z,38.69
2018-05-07T11:00:45.756Z,38.91
2018-05-07T11:03:13.983Z,38.70
2018-05-07T11:05:42.145Z,38.64
2018-05-07T11:08:10.308Z,38.96
2018-05-07T11:10:38.512Z,38.09
2018-05-07T11:13:06.692Z,38.02
2018-05-07T11:15:34.884Z,37.92
2018-05-07T11:18:03.083Z,38.02
2018-05-07T11:20:37.153Z,37.67
2018-05-07T11:23:05.319Z,37.60
2018-05-07T11:25:33.483Z,37.42
2018-05-07T11:28:01.666Z,37.70
2018-05-07T11:30:29.867Z,37.92
2018-05-07T11:32:58.040Z,37.86
2018-05-07T11:35:26.227Z,38.10
2018-05-07T11:37:54.415Z,38.22
2018-05-07T11:40:22.605Z,38.18
2018-05-07T11:42:50.759Z,37.74
2018-05-07T11:45:18.937Z,37.54
2018-05-07T11:47:47.251Z,36.45
2018-05-07T11:50:15.317Z,35.68
2018-05-07T11:52:43.507Z,34.89
2018-05-07T11:55:11.668Z,34.38
2018-05-07T11:57:39.941Z,33.89
2018-05-07T12:00:08.069Z,33.23
2018-05-07T12:02:36.294Z,32.64
2018-05-07T12:05:04.497Z,32.25
2018-05-07T12:07:32.671Z,32.01
2018-05-07T12:10:00.889Z,31.85
2018-05-07T12:12:29.065Z,31.72
2018-05-07T12:14:57.280Z,31.52
2018-05-07T12:17:25.483Z,31.41
2018-05-07T12:19:53.675Z,31.35
2018-05-07T12:22:21.862Z,31.26
2018-05-07T12:24:50.056Z,31.25
2018-05-07T12:27:18.242Z,31.23
2018-05-07T12:29:46.655Z,31.16
2018-05-07T12:32:14.868Z,30.65
2018-05-07T12:34:43.042Z,30.67
2018-05-07T12:37:11.234Z,30.56
2018-05-07T12:39:39.397Z,30.38
2018-05-07T12:42:07.618Z,30.55
2018-05-07T12:44:35.789Z,30.50
2018-05-07T12:47:04.016Z,30.45
2018-05-07T12:49:32.207Z,30.48
2018-05-07T12:52:00.763Z,30.67
2018-05-07T12:54:29.064Z,30.78
2018-05-07T12:56:57.339Z,30.76
2018-05-07T12:59:25.610Z,31.03
2018-05-07T13:01:53.796Z,30.90
2018-05-07T13:04:22.004Z,30.75
2018-05-07T13:06:50.514Z,30.65
2018-05-07T13:09:18.753Z,30.26
2018-05-07T13:11:47.241Z,30.36
2018-05-07T13:14:15.745Z,30.52
2018-05-07T13:16:44.062Z,30.35
2018-05-07T13:19:12.241Z,30.37
2018-05-07T13:21:40.392Z,30.37
2018-05-07T13:24:08.642Z,30.37
2018-05-07T13:26:36.718Z,30.28
2018-05-07T13:29:04.881Z,30.21
2018-05-07T13:31:33.104Z,30.06
2018-05-07T13:34:01.271Z,30.00
2018-05-07T13:36:29.627Z,30.04
2018-05-07T13:38:57.688Z,30.03
2018-05-07T13:41:25.871Z,29.98
2018-05-07T13:43:54.049Z,30.13
2018-05-07T13:46:22.247Z,30.20
2018-05-07T13:48:50.447Z,30.11
2018-05-07T13:51:18.692Z,29.90
2018-05-07T13:53:46.990Z,29.83
2018-05-07T13:56:15.280Z,29.90
2018-05-07T13:58:43.509Z,29.84
2018-05-07T14:01:11.670Z,29.80
2018-05-07T14:03:39.869Z,29.96
2018-05-07T14:06:08.050Z,30.01
2018-05-07T14:08:36.346Z,30.12
2018-05-07T14:11:04.491Z,30.13
2018-05-07T14:13:32.702Z,30.02
2018-05-07T14:16:00.946Z,30.03
2018-05-07T14:18:29.108Z,30.11
2018-05-07T14:20:57.322Z,30.16
2018-05-07T14:23:25.534Z,30.19
2018-05-07T14:25:53.741Z,30.09
2018-05-07T14:28:21.941Z,29.98
2018-05-07T14:30:50.246Z,29.93
2018-05-07T14:33:18.694Z,29.91
2018-05-07T14:35:46.806Z,29.91
2018-05-07T14:38:15.248Z,29.86
2018-05-07T14:40:43.494Z,29.83
2018-05-07T14:43:11.952Z,29.78
2018-05-07T14:45:40.148Z,29.73
2018-05-07T14:48:08.349Z,29.58
2018-05-07T14:50:36.524Z,29.58
2018-05-07T14:53:04.727Z,29.59
2018-05-07T14:55:32.982Z,29.60
2018-05-07T14:58:01.060Z,29.68
2018-05-07T15:00:29.235Z,29.72
2018-05-07T15:02:57.423Z,29.72
2018-05-07T15:05:25.621Z,29.58
2018-05-07T15:07:53.811Z,29.49
2018-05-07T15:10:22.001Z,29.48
2018-05-07T15:12:50.186Z,29.44
2018-05-07T15:15:18.360Z,29.40
2018-05-07T15:17:46.709Z,29.40
2018-05-07T15:20:15.804Z,29.45
2018-05-07T15:22:43.996Z,29.55
2018-05-07T15:25:12.169Z,29.44
2018-05-07T15:27:40.352Z,29.34
2018-05-07T15:30:08.497Z,29.31
2018-05-07T15:32:36.683Z,29.38
2018-05-07T15:35:04.888Z,29.34
2018-05-07T15:37:33.072Z,29.30
2018-05-07T15:40:01.246Z,29.28
2018-05-07T15:42:29.452Z,29.26
2018-05-07T15:44:57.634Z,29.28
2018-05-07T15:47:25.891Z,29.30
2018-05-07T15:49:54.016Z,29.31
2018-05-07T15:52:22.229Z,29.26
2018-05-07T15:54:50.508Z,29.07
2018-05-07T15:57:18.776Z,28.94
2018-05-07T15:59:47.179Z,28.92
2018-05-07T16:02:15.499Z,28.98
2018-05-07T16:04:43.723Z,28.75
2018-05-07T16:07:11.880Z,28.82
2018-05-07T16:09:40.051Z,28.84
2018-05-07T16:12:08.252Z,28.86
2018-05-07T16:14:36.440Z,28.82
2018-05-07T16:17:04.630Z,28.80
2018-05-07T16:19:32.918Z,28.72
2018-05-07T16:22:01.148Z,28.63
2018-05-07T16:24:29.264Z,28.65
2018-05-07T16:26:57.438Z,28.64
2018-05-07T16:29:25.594Z,28.57
2018-05-07T16:31:53.759Z,28.59
2018-05-07T16:34:21.925Z,28.55
2018-05-07T16:36:50.070Z,28.57
2018-05-07T16:39:18.245Z,28.53
2018-05-07T16:41:46.406Z,28.57
2018-05-07T16:44:14.581Z,28.52
2018-05-07T16:46:42.735Z,28.50
2018-05-07T16:49:11.118Z,28.49
2018-05-07T16:51:39.220Z,28.46
2018-05-07T16:54:07.386Z,28.42
2018-05-07T16:56:35.548Z,28.33
2018-05-07T16:59:03.707Z,28.24
2018-05-07T17:01:31.912Z,28.21
2018-05-07T17:04:00.088Z,28.16
2018-05-07T17:06:28.228Z,28.06
2018-05-07T17:08:56.419Z,28.07
2018-05-07T17:11:24.594Z,28.04
2018-05-07T17:13:52.788Z,27.99
2018-05-07T17:16:20.968Z,27.93
2018-05-07T17:18:49.168Z,27.89
2018-05-07T17:21:17.381Z,27.77
2018-05-07T17:23:45.558Z,27.80
2018-05-07T17:26:13.766Z,27.77
2018-05-07T17:28:41.940Z,27.75
2018-05-07T17:31:10.128Z,27.66
2018-05-07T17:33:38.387Z,27.51
2018-05-07T17:36:06.488Z,27.56
2018-05-07T17:38:34.638Z,27.56
2018-05-07T17:41:02.849Z,27.50
2018-05-07T17:43:31.037Z,27.45
2018-05-07T17:46:50.408Z,27.35
2018-05-07T17:49:18.590Z,27.36
2018-05-07T17:51:46.768Z,27.29
2018-05-07T17:54:14.957Z,27.27
2018-05-07T17:56:43.138Z,27.23
2018-05-07T17:59:11.309Z,27.20
2018-05-07T18:01:39.743Z,27.12
2018-05-07T18:04:07.966Z,27.02
2018-05-07T18:06:36.157Z,26.94
2018-05-07T18:09:04.672Z,26.87
2018-05-07T18:11:32.897Z,26.82
2018-05-07T18:14:01.172Z,26.75
2018-05-07T18:16:29.229Z,26.70
2018-05-07T18:18:57.420Z,26.61
2018-05-07T18:21:25.610Z,26.47
2018-05-07T18:23:53.819Z,26.37
2018-05-07T18:26:22.118Z,26.26
2018-05-07T18:28:50.214Z,26.12
2018-05-07T18:31:18.414Z,25.99
2018-05-07T18:33:46.674Z,25.84
2018-05-07T18:36:14.774Z,25.70
2018-05-07T18:38:42.967Z,25.55
2018-05-07T18:41:11.165Z,25.44
2018-05-07T18:43:39.337Z,25.31
2018-05-07T18:46:07.537Z,25.17
2018-05-07T18:48:35.813Z,25.04
2018-05-07T18:51:03.959Z,24.88
2018-05-07T18:53:32.157Z,24.73
2018-05-07T18:56:00.332Z,24.60
2018-05-07T18:58:28.500Z,24.49
2018-05-07T19:00:56.678Z,24.35
2018-05-07T19:03:24.855Z,24.23
2018-05-07T19:05:53.012Z,24.11
2018-05-07T19:08:21.217Z,23.99
2018-05-07T19:10:49.496Z,23.84
2018-05-07T19:13:17.668Z,23.73
2018-05-07T19:15:45.852Z,23.57
2018-05-07T19:18:14.016Z,23.47
2018-05-07T19:20:42.208Z,23.33
2018-05-07T19:23:10.365Z,23.19
2018-05-07T19:25:38.552Z,23.06
2018-05-07T19:28:06.705Z,22.94
2018-05-07T19:30:34.891Z,22.82
2018-05-07T19:33:03.157Z,22.71
2018-05-07T19:35:31.301Z,22.63
2018-05-07T19:37:59.488Z,22.53
2018-05-07T19:40:27.675Z,22.41
2018-05-07T19:42:55.853Z,22.29
2018-05-07T19:45:24.016Z,22.19
2018-05-07T19:47:52.252Z,22.08
2018-05-07T19:50:20.324Z,21.93
2018-05-07T19:52:48.474Z,21.79
2018-05-07T19:55:16.646Z,21.70
2018-05-07T19:57:44.845Z,21.63
2018-05-07T20:00:13.021Z,21.64
2018-05-07T20:02:41.194Z,21.61
2018-05-07T20:05:09.365Z,21.52
2018-05-07T20:07:37.560Z,21.41
2018-05-07T20:10:05.738Z,21.28
2018-05-07T20:12:33.948Z,21.20
2018-05-07T20:15:02.113Z,21.14
2018-05-07T20:17:30.282Z,21.11
2018-05-07T20:19:58.494Z,20.98
2018-05-07T20:22:26.695Z,20.86
2018-05-07T20:24:54.882Z,20.76
2018-05-07T20:27:23.048Z,20.64
2018-05-07T20:29:51.224Z,20.56
2018-05-07T20:32:19.411Z,20.54
2018-05-07T20:34:47.688Z,20.47
2018-05-07T20:37:18.834Z,20.43
2018-05-07T20:39:47.017Z,20.33
2018-05-07T20:42:15.188Z,20.27
2018-05-07T20:44:43.354Z,20.18
2018-05-07T20:47:11.533Z,20.12
2018-05-07T20:49:39.734Z,20.06
2018-05-07T20:52:07.897Z,20.03
2018-05-07T20:54:36.051Z,19.94
2018-05-07T20:57:04.235Z,19.88
2018-05-07T20:59:32.475Z,19.82
2018-05-07T21:02:00.602Z,19.75
2018-05-07T21:04:28.802Z,19.71
2018-05-07T21:06:56.948Z,19.73
2018-05-07T21:09:25.130Z,19.76
2018-05-07T21:11:53.322Z,19.81
2018-05-07T21:14:21.495Z,19.82
2018-05-07T21:16:49.695Z,19.86
2018-05-07T21:19:17.862Z,19.89
2018-05-07T21:21:46.061Z,19.88
2018-05-07T21:24:14.244Z,19.87
2018-05-07T21:26:42.388Z,19.88
2018-05-07T21:29:10.588Z,19.84
2018-05-07T21:31:38.762Z,19.82
2018-05-07T21:34:06.936Z,19.77
2018-05-07T21:36:35.131Z,19.73
2018-05-07T21:39:03.314Z,19.71
2018-05-07T21:41:31.455Z,19.75
2018-05-07T21:43:59.649Z,19.78
2018-05-07T21:46:27.829Z,19.79
2018-05-07T21:48:56.025Z,19.82
2018-05-07T21:51:24.183Z,19.83
2018-05-07T21:53:52.377Z,19.84
2018-05-07T21:56:20.569Z,19.84
2018-05-07T21:58:48.760Z,19.83
2018-05-07T22:01:16.971Z,19.79
2018-05-07T22:03:45.141Z,19.79
2018-05-07T22:06:13.328Z,19.78
2018-05-07T22:08:41.487Z,19.74
2018-05-07T22:11:09.685Z,19.73
2018-05-07T22:13:37.864Z,19.69
2018-05-07T22:16:06.036Z,19.66
2018-05-07T22:18:34.208Z,19.61
2018-05-07T22:21:02.356Z,19.67
2018-05-07T22:23:30.545Z,19.70
2018-05-07T22:25:58.713Z,19.74
2018-05-07T22:28:26.887Z,19.75
2018-05-07T22:30:55.064Z,19.72
2018-05-07T22:33:23.223Z,19.70
2018-05-07T22:35:51.422Z,19.69
2018-05-07T22:38:19.579Z,19.65
2018-05-07T22:40:47.743Z,19.62
2018-05-07T22:43:15.889Z,19.63
2018-05-07T22:45:44.044Z,19.62
2018-05-07T22:48:12.204Z,19.56
2018-05-07T22:50:40.416Z,19.51
2018-05-07T22:53:08.574Z,19.51
2018-05-07T22:55:36.764Z,19.45
2018-05-07T22:58:04.956Z,19.36
2018-05-07T23:00:33.156Z,19.28
2018-05-07T23:03:01.318Z,19.20
2018-05-07T23:05:29.508Z,19.18
2018-05-07T23:07:57.662Z,19.12
2018-05-07T23:10:25.827Z,19.05
2018-05-07T23:12:54.005Z,19.04
2018-05-07T23:15:22.183Z,19.03
2018-05-07T23:17:50.355Z,19.00
2018-05-07T23:20:18.735Z,18.98
2018-05-07T23:22:46.920Z,18.96
2018-05-07T23:25:15.120Z,18.97
2018-05-07T23:27:43.278Z,18.97
2018-05-07T23:30:11.451Z,18.98
2018-05-07T23:32:41.914Z,19.02
2018-05-07T23:35:10.088Z,19.02
2018-05-07T23:37:38.275Z,19.02
2018-05-07T23:40:06.469Z,19.04
2018-05-07T23:42:34.643Z,19.01
2018-05-07T23:45:02.871Z,19.01
2018-05-07T23:47:30.957Z,19.00
2018-05-07T23:49:59.119Z,18.95
2018-05-07T23:52:27.321Z,18.95
2018-05-07T23:54:55.520Z,18.92
2018-05-07T23:57:23.704Z,18.86
2018-05-07T23:59:51.863Z,18.72
